createdAt,value
2018-12-22T00:01:04.776Z,17.94
2018-12-22T00:03:32.429Z,17.99
2018-12-22T00:06:00.010Z,17.94
2018-12-22T00:08:27.611Z,17.94
2018-12-22T00:10:55.241Z,17.97
2018-12-22T00:13:22.931Z,17.91
2018-12-22T00:15:50.568Z,17.92
2018-12-22T00:18:18.165Z,17.94
2018-12-22T00:20:45.832Z,17.95
2018-12-22T00:23:13.547Z,17.94
2018-12-22T00:25:41.101Z,17.93
2018-12-22T00:28:08.725Z,17.93
2018-12-22T00:30:36.324Z,17.94
2018-12-22T00:33:03.881Z,17.92
2018-12-22T00:35:31.491Z,17.90
2018-12-22T00:37:59.110Z,17.93
2018-12-22T00:40:26.877Z,17.93
2018-12-22T00:42:54.448Z,17.93
2018-12-22T00:45:22.912Z,17.93
2018-12-22T00:47:50.738Z,17.93
2018-12-22T00:50:18.298Z,17.92
2018-12-22T00:52:45.944Z,17.93
2018-12-22T00:55:13.601Z,17.95
2018-12-22T00:57:41.208Z,17.92
2018-12-22T01:00:09.004Z,17.91
2018-12-22T01:02:36.674Z,17.94
2018-12-22T01:05:04.298Z,17.93
2018-12-22T01:07:31.878Z,17.94
2018-12-22T01:09:59.515Z,17.93
2018-12-22T01:12:27.123Z,17.93
2018-12-22T01:14:54.786Z,17.92
2018-12-22T01:17:22.505Z,17.94
2018-12-22T01:19:50.141Z,17.96
2018-12-22T01:22:17.723Z,17.95
2018-12-22T01:24:45.478Z,17.94
2018-12-22T01:27:13.074Z,17.91
2018-12-22T01:29:40.727Z,17.95
2018-12-22T01:32:08.451Z,17.94
2018-12-22T01:34:36.066Z,17.95
2018-12-22T01:37:03.657Z,17.99
2018-12-22T01:39:31.303Z,17.98
2018-12-22T01:41:58.907Z,17.99
2018-12-22T01:44:26.522Z,17.99
2018-12-22T01:46:54.195Z,17.99
2018-12-22T01:49:21.778Z,17.98
2018-12-22T01:51:49.493Z,17.98
2018-12-22T01:54:17.106Z,17.98
2018-12-22T01:56:44.697Z,17.98
2018-12-22T01:59:12.374Z,17.98
2018-12-22T02:01:39.994Z,17.98
2018-12-22T02:04:07.585Z,18.01
2018-12-22T02:06:35.318Z,18.01
2018-12-22T02:09:04.520Z,18.01
2018-12-22T02:11:32.105Z,18.03
2018-12-22T02:13:59.834Z,18.03
2018-12-22T02:16:27.447Z,18.03
2018-12-22T02:18:55.099Z,18.02
2018-12-22T02:21:22.761Z,18.03
2018-12-22T02:23:50.457Z,18.05
2018-12-22T02:26:18.100Z,18.06
2018-12-22T02:28:45.698Z,18.06
2018-12-22T02:31:13.316Z,18.07
2018-12-22T02:33:41.022Z,18.06
2018-12-22T02:36:08.638Z,18.05
2018-12-22T02:38:36.276Z,18.04
2018-12-22T02:41:03.925Z,18.08
2018-12-22T02:43:31.553Z,18.08
2018-12-22T02:45:59.172Z,18.09
2018-12-22T02:48:26.874Z,18.12
2018-12-22T02:50:54.547Z,18.11
2018-12-22T02:53:22.131Z,18.11
2018-12-22T02:55:49.771Z,18.10
2018-12-22T02:58:17.384Z,18.08
2018-12-22T03:00:44.999Z,18.10
2018-12-22T03:03:12.770Z,18.11
2018-12-22T03:05:40.401Z,18.12
2018-12-22T03:08:08.002Z,18.11
2018-12-22T03:10:35.770Z,18.10
2018-12-22T03:13:03.392Z,18.07
2018-12-22T03:15:31.008Z,18.10
2018-12-22T03:17:58.623Z,18.12
2018-12-22T03:20:26.235Z,18.13
2018-12-22T03:22:53.976Z,18.13
2018-12-22T03:25:21.559Z,18.14
2018-12-22T03:27:49.155Z,18.15
2018-12-22T03:30:16.752Z,18.13
2018-12-22T03:32:44.431Z,18.15
2018-12-22T03:35:12.149Z,18.14
2018-12-22T03:37:39.742Z,18.15
2018-12-22T03:40:08.177Z,18.15
2018-12-22T03:42:35.826Z,18.16
2018-12-22T03:45:03.467Z,18.16
2018-12-22T03:47:31.079Z,18.19
2018-12-22T03:49:58.783Z,18.18
2018-12-22T03:52:26.369Z,18.18
2018-12-22T03:54:54.111Z,18.20
2018-12-22T03:57:21.779Z,18.17
2018-12-22T03:59:49.436Z,18.17
2018-12-22T04:02:17.057Z,18.17
2018-12-22T04:04:44.685Z,18.15
2018-12-22T04:07:12.268Z,18.15
2018-12-22T04:09:39.855Z,18.17
2018-12-22T04:12:07.492Z,18.13
2018-12-22T04:14:35.122Z,18.14
2018-12-22T04:17:02.699Z,18.16
2018-12-22T04:19:30.333Z,18.16
2018-12-22T04:21:58.107Z,18.16
2018-12-22T04:24:25.697Z,18.17
2018-12-22T04:26:53.300Z,18.14
2018-12-22T04:29:20.998Z,18.19
2018-12-22T04:31:50.757Z,18.20
2018-12-22T04:34:18.230Z,18.22
2018-12-22T04:36:45.854Z,18.23
2018-12-22T04:39:13.638Z,18.26
2018-12-22T04:41:41.222Z,18.28
2018-12-22T04:44:08.824Z,18.33
2018-12-22T04:46:36.559Z,18.36
2018-12-22T04:49:04.178Z,18.41
2018-12-22T04:51:31.761Z,18.41
2018-12-22T04:53:59.509Z,18.43
2018-12-22T04:56:27.100Z,18.46
2018-12-22T04:58:54.811Z,18.47
2018-12-22T05:01:22.564Z,18.50
2018-12-22T05:03:50.163Z,18.51
2018-12-22T05:06:17.782Z,18.52
2018-12-22T05:08:45.401Z,18.50
2018-12-22T05:11:13.021Z,18.52
2018-12-22T05:13:40.625Z,18.52
2018-12-22T05:16:08.363Z,18.54
2018-12-22T05:18:35.980Z,18.57
2018-12-22T05:21:03.568Z,18.55
2018-12-22T05:23:31.199Z,18.53
2018-12-22T05:25:58.802Z,18.53
2018-12-22T05:28:26.401Z,18.55
2018-12-22T05:30:54.082Z,18.57
2018-12-22T05:33:21.681Z,18.55
2018-12-22T05:35:49.286Z,18.56
2018-12-22T05:38:16.835Z,18.53
2018-12-22T05:40:44.453Z,18.56
2018-12-22T05:43:12.083Z,18.57
2018-12-22T05:45:39.651Z,18.57
2018-12-22T05:48:07.277Z,18.58
2018-12-22T05:50:34.905Z,18.60
2018-12-22T05:53:02.505Z,18.60
2018-12-22T05:55:30.081Z,18.61
2018-12-22T05:57:57.753Z,18.60
2018-12-22T06:00:25.351Z,18.60
2018-12-22T06:02:52.974Z,18.59
2018-12-22T06:05:20.583Z,18.61
2018-12-22T06:07:48.205Z,18.62
2018-12-22T06:10:15.787Z,18.63
2018-12-22T06:12:43.422Z,18.64
2018-12-22T06:15:11.067Z,18.66
2018-12-22T06:17:38.671Z,18.65
2018-12-22T06:20:08.425Z,18.63
2018-12-22T06:22:36.001Z,18.65
2018-12-22T06:25:03.669Z,18.66
2018-12-22T06:27:31.236Z,18.65
2018-12-22T06:30:09.100Z,18.66
2018-12-22T06:32:34.954Z,18.65
2018-12-22T06:35:02.515Z,18.67
2018-12-22T06:37:30.133Z,18.68
2018-12-22T06:39:57.707Z,18.67
2018-12-22T06:42:25.312Z,18.68
2018-12-22T06:44:52.903Z,18.64
2018-12-22T06:47:20.534Z,18.66
2018-12-22T06:49:48.135Z,18.69
2018-12-22T06:52:15.787Z,18.69
2018-12-22T06:54:43.438Z,18.70
2018-12-22T06:57:10.999Z,18.70
2018-12-22T06:59:38.635Z,18.70
2018-12-22T07:02:06.256Z,18.68
2018-12-22T07:04:33.903Z,18.70
2018-12-22T07:07:01.502Z,18.71
2018-12-22T07:09:29.204Z,18.69
2018-12-22T07:11:56.840Z,18.67
2018-12-22T07:14:24.461Z,18.66
2018-12-22T07:16:52.058Z,18.68
2018-12-22T07:19:19.589Z,18.67
2018-12-22T07:21:47.229Z,18.70
2018-12-22T07:24:14.832Z,18.72
2018-12-22T07:26:42.428Z,18.70
2018-12-22T07:29:10.041Z,18.71
2018-12-22T07:31:37.643Z,18.70
2018-12-22T07:34:05.270Z,18.68
2018-12-22T07:36:32.963Z,18.71
2018-12-22T07:39:00.553Z,18.72
2018-12-22T07:41:28.139Z,18.73
2018-12-22T07:43:55.721Z,18.73
2018-12-22T07:46:23.356Z,18.72
2018-12-22T07:48:50.978Z,18.72
2018-12-22T07:51:18.525Z,18.71
2018-12-22T07:53:46.169Z,18.71
2018-12-22T07:56:13.793Z,18.70
2018-12-22T07:58:41.412Z,18.74
2018-12-22T08:01:09.033Z,18.76
2018-12-22T08:03:36.649Z,18.76
2018-12-22T08:06:04.237Z,18.74
2018-12-22T08:08:31.847Z,18.76
2018-12-22T08:10:59.488Z,18.77
2018-12-22T08:13:27.119Z,18.78
2018-12-22T08:15:54.751Z,18.76
2018-12-22T08:18:22.376Z,18.77
2018-12-22T08:20:49.995Z,18.77
2018-12-22T08:23:24.214Z,18.76
2018-12-22T08:25:51.904Z,18.77
2018-12-22T08:28:19.479Z,18.75
2018-12-22T08:30:47.100Z,18.75
2018-12-22T08:33:14.727Z,18.78
2018-12-22T08:35:42.309Z,18.79
2018-12-22T08:38:09.953Z,18.78
2018-12-22T08:40:37.550Z,18.82
2018-12-22T08:43:05.127Z,18.83
2018-12-22T08:45:32.747Z,18.83
2018-12-22T08:48:00.422Z,18.82
2018-12-22T08:50:28.019Z,18.81
2018-12-22T08:52:55.611Z,18.80
2018-12-22T08:55:23.234Z,18.81
2018-12-22T08:57:50.801Z,18.82
2018-12-22T09:00:18.386Z,18.82
2018-12-22T09:02:47.751Z,18.82
2018-12-22T09:05:15.582Z,18.81
2018-12-22T09:07:43.225Z,18.84
2018-12-22T09:10:10.798Z,18.86
2018-12-22T09:12:38.406Z,18.85
2018-12-22T09:15:07.263Z,18.86
2018-12-22T09:17:34.989Z,18.88
2018-12-22T09:20:02.541Z,18.85
2018-12-22T09:22:30.097Z,18.87
2018-12-22T09:24:57.708Z,18.88
2018-12-22T09:27:25.317Z,18.88
2018-12-22T09:29:52.981Z,18.87
2018-12-22T09:32:20.578Z,18.88
2018-12-22T09:34:48.166Z,18.88
2018-12-22T09:37:15.798Z,18.88
2018-12-22T09:39:43.387Z,18.89
2018-12-22T09:42:11.029Z,18.88
2018-12-22T09:44:38.721Z,18.88
2018-12-22T09:47:06.329Z,18.87
2018-12-22T09:49:33.900Z,18.88
2018-12-22T09:52:01.485Z,18.90
2018-12-22T09:54:29.119Z,18.93
2018-12-22T09:56:56.701Z,18.90
2018-12-22T09:59:24.343Z,18.94
2018-12-22T10:01:51.999Z,18.96
2018-12-22T10:04:19.645Z,18.98
2018-12-22T10:06:47.255Z,18.98
2018-12-22T10:09:14.853Z,19.00
2018-12-22T10:11:42.514Z,18.98
2018-12-22T10:14:10.091Z,18.98
2018-12-22T10:16:37.700Z,19.03
2018-12-22T10:19:05.316Z,19.03
2018-12-22T10:21:32.914Z,18.96
2018-12-22T10:24:00.515Z,19.00
2018-12-22T10:26:28.096Z,19.01
2018-12-22T10:28:55.711Z,19.03
2018-12-22T10:31:23.294Z,19.03
2018-12-22T10:33:50.926Z,19.04
2018-12-22T10:36:18.542Z,19.05
2018-12-22T10:38:46.131Z,19.04
2018-12-22T10:41:13.726Z,19.05
2018-12-22T10:43:41.298Z,19.04
2018-12-22T10:46:09.089Z,19.04
2018-12-22T10:48:36.681Z,19.02
2018-12-22T10:51:04.248Z,19.02
2018-12-22T10:53:31.884Z,19.04
2018-12-22T10:55:59.497Z,19.03
2018-12-22T10:58:27.208Z,19.03
2018-12-22T11:00:54.790Z,19.03
2018-12-22T11:03:22.351Z,19.04
2018-12-22T11:05:49.950Z,19.05
2018-12-22T11:08:18.018Z,19.05
2018-12-22T11:10:45.602Z,19.05
2018-12-22T11:13:13.240Z,19.04
2018-12-22T11:15:40.858Z,19.04
2018-12-22T11:18:08.460Z,19.01
2018-12-22T11:20:36.080Z,19.01
2018-12-22T11:23:03.795Z,19.02
2018-12-22T11:25:31.354Z,19.03
2018-12-22T11:27:58.934Z,19.06
2018-12-22T11:30:34.480Z,19.04
2018-12-22T11:33:03.388Z,19.03
2018-12-22T11:35:31.172Z,19.02
2018-12-22T11:37:58.760Z,19.03
2018-12-22T11:40:26.373Z,19.03
2018-12-22T11:42:54.002Z,19.03
2018-12-22T11:45:21.672Z,19.03
2018-12-22T11:49:00.297Z,19.04
2018-12-22T11:51:27.900Z,19.05
2018-12-22T11:53:55.492Z,19.04
2018-12-22T11:56:23.096Z,19.03
2018-12-22T11:58:50.694Z,19.04
2018-12-22T12:01:18.329Z,19.04
2018-12-22T12:03:45.907Z,19.03
2018-12-22T12:06:13.556Z,19.01
2018-12-22T12:08:41.200Z,19.01
2018-12-22T12:11:08.794Z,19.00
2018-12-22T12:13:36.431Z,19.00
2018-12-22T12:16:31.648Z,19.02
2018-12-22T12:19:21.147Z,19.04
2018-12-22T12:21:48.886Z,19.03
2018-12-22T12:24:16.878Z,19.03
2018-12-22T12:26:44.501Z,19.03
2018-12-22T12:29:12.131Z,19.02
2018-12-22T12:31:39.723Z,19.03
2018-12-22T12:34:07.379Z,19.04
2018-12-22T12:36:34.956Z,19.02
2018-12-22T12:39:02.713Z,19.00
2018-12-22T12:41:30.292Z,18.99
2018-12-22T12:43:57.929Z,19.01
2018-12-22T12:46:31.069Z,19.03
2018-12-22T12:48:58.753Z,19.02
2018-12-22T12:51:26.334Z,18.99
2018-12-22T12:53:53.903Z,18.98
2018-12-22T12:56:21.530Z,19.00
2018-12-22T12:58:49.243Z,18.96
2018-12-22T13:01:16.816Z,18.96
2018-12-22T13:03:44.436Z,18.96
2018-12-22T13:06:12.070Z,18.95
2018-12-22T13:08:39.716Z,18.95
2018-12-22T13:11:07.325Z,18.95
2018-12-22T13:13:46.173Z,18.93
2018-12-22T13:16:13.799Z,18.94
2018-12-22T13:18:41.419Z,18.94
2018-12-22T13:21:09.460Z,18.96
2018-12-22T13:23:37.099Z,19.00
2018-12-22T13:26:04.728Z,18.98
2018-12-22T13:28:32.340Z,19.00
2018-12-22T13:30:59.953Z,19.01
2018-12-22T13:33:28.109Z,19.00
2018-12-22T13:35:55.881Z,18.99
2018-12-22T13:38:24.447Z,19.01
2018-12-22T13:40:52.082Z,19.01
2018-12-22T13:43:19.716Z,19.01
2018-12-22T13:45:47.272Z,19.02
2018-12-22T13:48:15.102Z,19.01
2018-12-22T13:50:43.304Z,18.98
2018-12-22T13:53:11.024Z,18.99
2018-12-22T13:55:38.671Z,19.00
2018-12-22T13:58:06.287Z,18.98
2018-12-22T14:00:38.492Z,18.97
2018-12-22T14:03:07.741Z,18.95
2018-12-22T14:05:35.767Z,18.94
2018-12-22T14:08:03.544Z,18.93
2018-12-22T14:10:31.150Z,18.94
2018-12-22T14:12:58.742Z,18.94
2018-12-22T14:15:26.405Z,18.95
2018-12-22T14:18:06.475Z,18.96
2018-12-22T14:20:34.989Z,18.96
2018-12-22T14:23:02.623Z,18.95
2018-12-22T14:25:30.751Z,18.94
2018-12-22T14:27:58.363Z,18.92
2018-12-22T14:30:26.103Z,18.93
2018-12-22T14:33:00.372Z,18.96
2018-12-22T14:35:40.800Z,18.96
2018-12-22T14:38:08.396Z,18.94
2018-12-22T14:40:36.014Z,18.95
2018-12-22T14:43:03.691Z,18.93
2018-12-22T14:45:31.313Z,18.95
2018-12-22T14:47:58.955Z,18.95
2018-12-22T14:50:26.591Z,18.95
2018-12-22T14:52:54.202Z,18.97
2018-12-22T14:55:21.818Z,18.94
2018-12-22T14:57:53.195Z,18.97
2018-12-22T15:00:20.798Z,18.95
2018-12-22T15:02:48.392Z,18.91
2018-12-22T15:05:15.967Z,18.92
2018-12-22T15:07:43.617Z,18.90
2018-12-22T15:10:11.239Z,18.90
2018-12-22T15:12:38.903Z,18.93
2018-12-22T15:15:07.709Z,18.95
2018-12-22T15:17:35.435Z,18.94
2018-12-22T15:20:03.767Z,18.95
2018-12-22T15:22:31.388Z,18.94
2018-12-22T15:24:59.049Z,18.94
2018-12-22T15:27:26.612Z,18.91
2018-12-22T15:29:54.229Z,18.93
2018-12-22T15:32:21.929Z,18.93
2018-12-22T15:34:49.571Z,18.94
2018-12-22T15:37:17.165Z,18.92
2018-12-22T15:39:44.768Z,18.94
2018-12-22T15:42:12.453Z,18.96
2018-12-22T15:44:40.036Z,18.95
2018-12-22T15:47:07.718Z,18.94
2018-12-22T15:49:35.273Z,18.93
2018-12-22T15:52:02.957Z,18.91
2018-12-22T15:54:30.566Z,18.91
2018-12-22T15:56:58.280Z,18.91
2018-12-22T15:59:25.860Z,18.91
2018-12-22T16:01:53.430Z,18.92
2018-12-22T16:04:21.084Z,18.91
2018-12-22T16:06:48.667Z,18.87
2018-12-22T16:09:16.293Z,18.91
2018-12-22T16:11:43.828Z,18.93
2018-12-22T16:14:11.480Z,18.93
2018-12-22T16:16:39.122Z,18.90
2018-12-22T16:19:06.899Z,18.90
2018-12-22T16:21:34.544Z,18.91
2018-12-22T16:24:02.147Z,18.95
2018-12-22T16:26:29.792Z,18.91
2018-12-22T16:29:03.867Z,18.90
2018-12-22T16:31:31.478Z,18.90
2018-12-22T16:33:59.091Z,18.92
2018-12-22T16:36:26.664Z,18.92
2018-12-22T16:38:54.314Z,18.90
2018-12-22T16:41:21.957Z,18.90
2018-12-22T16:43:49.922Z,18.90
2018-12-22T16:46:17.670Z,18.90
2018-12-22T16:48:46.358Z,18.87
2018-12-22T16:51:13.986Z,18.88
2018-12-22T16:53:41.587Z,18.88
2018-12-22T16:56:09.182Z,18.88
2018-12-22T16:58:38.946Z,18.88
2018-12-22T17:01:31.663Z,18.84
2018-12-22T17:03:59.309Z,18.84
2018-12-22T17:06:27.028Z,18.85
2018-12-22T17:08:54.649Z,18.85
2018-12-22T17:11:22.279Z,18.85
2018-12-22T17:13:49.910Z,18.85
2018-12-22T17:16:17.733Z,18.81
2018-12-22T17:18:45.385Z,18.83
2018-12-22T17:21:22.931Z,18.82
2018-12-22T17:23:57.937Z,18.82
2018-12-22T17:26:28.046Z,18.82
2018-12-22T17:28:55.747Z,18.81
2018-12-22T17:31:23.370Z,18.81
2018-12-22T17:33:50.935Z,18.81
2018-12-22T17:36:18.653Z,18.84
2018-12-22T17:38:46.925Z,18.86
2018-12-22T17:41:14.568Z,18.83
2018-12-22T17:43:43.979Z,18.80
2018-12-22T17:46:11.636Z,18.79
2018-12-22T17:48:39.277Z,18.80
2018-12-22T17:51:06.941Z,18.79
2018-12-22T17:53:34.526Z,18.78
2018-12-22T17:56:02.133Z,18.76
2018-12-22T17:58:29.788Z,18.75
2018-12-22T18:00:57.340Z,18.76
2018-12-22T18:03:29.185Z,18.76
2018-12-22T18:05:56.809Z,18.73
2018-12-22T18:08:24.430Z,18.74
2018-12-22T18:10:52.021Z,18.70
2018-12-22T18:13:19.720Z,18.74
2018-12-22T18:15:47.414Z,18.74
2018-12-22T18:18:15.058Z,18.72
2018-12-22T18:20:42.663Z,18.68
2018-12-22T18:23:10.243Z,18.72
2018-12-22T18:25:38.002Z,18.72
2018-12-22T18:28:05.602Z,18.73
2018-12-22T18:30:33.233Z,18.74
2018-12-22T18:33:00.808Z,18.76
2018-12-22T18:35:28.494Z,18.77
2018-12-22T18:37:56.102Z,18.75
2018-12-22T18:40:23.950Z,18.75
2018-12-22T18:42:51.567Z,18.73
2018-12-22T18:45:19.130Z,18.72
2018-12-22T18:47:46.843Z,18.70
2018-12-22T18:50:18.302Z,18.71
2018-12-22T18:52:45.911Z,18.71
2018-12-22T18:55:13.494Z,18.70
2018-12-22T18:57:41.157Z,18.71
2018-12-22T19:00:14.000Z,18.72
2018-12-22T19:02:41.592Z,18.70
2018-12-22T19:05:09.260Z,18.74
2018-12-22T19:07:36.824Z,18.73
2018-12-22T19:10:09.236Z,18.71
2018-12-22T19:12:36.832Z,18.74
2018-12-22T19:15:04.773Z,18.74
2018-12-22T19:17:32.435Z,18.75
2018-12-22T19:20:00.044Z,18.76
2018-12-22T19:22:27.769Z,18.74
2018-12-22T19:24:55.368Z,18.73
2018-12-22T19:27:23.000Z,18.70
2018-12-22T19:29:50.650Z,18.71
2018-12-22T19:32:18.217Z,18.71
2018-12-22T19:34:45.846Z,18.72
2018-12-22T19:37:13.457Z,18.69
2018-12-22T19:39:41.064Z,18.70
2018-12-22T19:42:08.678Z,18.68
2018-12-22T19:44:36.246Z,18.65
2018-12-22T19:47:03.856Z,18.66
2018-12-22T19:49:31.456Z,18.65
2018-12-22T19:51:59.058Z,18.68
2018-12-22T19:54:26.689Z,18.68
2018-12-22T19:56:54.377Z,18.68
2018-12-22T19:59:21.925Z,18.66
2018-12-22T20:01:49.574Z,18.68
2018-12-22T20:04:17.171Z,18.67
2018-12-22T20:06:44.817Z,18.70
2018-12-22T20:09:12.392Z,18.70
2018-12-22T20:11:40.398Z,18.71
2018-12-22T20:14:08.017Z,18.71
2018-12-22T20:16:35.588Z,18.71
2018-12-22T20:19:03.183Z,18.70
2018-12-22T20:21:30.851Z,18.70
2018-12-22T20:23:58.460Z,18.71
2018-12-22T20:26:26.041Z,18.71
2018-12-22T20:28:53.616Z,18.68
2018-12-22T20:31:21.215Z,18.66
2018-12-22T20:33:48.773Z,18.64
2018-12-22T20:36:16.430Z,18.65
2018-12-22T20:38:43.975Z,18.65
2018-12-22T20:41:11.640Z,18.62
2018-12-22T20:43:39.240Z,18.59
2018-12-22T20:46:06.930Z,18.56
2018-12-22T20:48:34.541Z,18.56
2018-12-22T20:51:02.076Z,18.57
2018-12-22T20:53:29.657Z,18.55
2018-12-22T20:55:57.236Z,18.54
2018-12-22T20:58:24.853Z,18.55
2018-12-22T21:00:52.411Z,18.56
2018-12-22T21:03:23.078Z,18.54
2018-12-22T21:05:54.876Z,18.55
2018-12-22T21:08:22.432Z,18.53
2018-12-22T21:10:49.976Z,18.51
2018-12-22T21:13:17.586Z,18.51
2018-12-22T21:15:45.203Z,18.52
2018-12-22T21:18:12.809Z,18.48
2018-12-22T21:20:40.397Z,18.49
2018-12-22T21:23:08.029Z,18.46
2018-12-22T21:25:35.642Z,18.46
2018-12-22T21:28:03.176Z,18.47
2018-12-22T21:30:30.797Z,18.40
2018-12-22T21:32:58.470Z,18.45
2018-12-22T21:35:26.089Z,18.39
2018-12-22T21:37:53.676Z,18.45
2018-12-22T21:40:21.322Z,18.47
2018-12-22T21:42:48.876Z,18.46
2018-12-22T21:45:16.460Z,18.45
2018-12-22T21:47:44.168Z,18.47
2018-12-22T21:50:11.864Z,18.43
2018-12-22T21:52:39.439Z,18.42
2018-12-22T21:55:07.659Z,18.44
2018-12-22T21:57:35.543Z,18.44
2018-12-22T22:00:03.179Z,18.46
2018-12-22T22:02:30.948Z,18.41
2018-12-22T22:04:58.533Z,18.40
2018-12-22T22:07:26.108Z,18.39
2018-12-22T22:09:53.714Z,18.42
2018-12-22T22:12:21.290Z,18.43
2018-12-22T22:14:48.919Z,18.42
2018-12-22T22:17:16.537Z,18.41
2018-12-22T22:19:44.143Z,18.41
2018-12-22T22:22:11.702Z,18.40
2018-12-22T22:24:39.293Z,18.40
2018-12-22T22:27:07.334Z,18.41
2018-12-22T22:29:34.959Z,18.41
2018-12-22T22:32:02.583Z,18.42
2018-12-22T22:34:30.175Z,18.42
2018-12-22T22:36:57.802Z,18.39
2018-12-22T22:39:25.421Z,18.41
2018-12-22T22:41:53.040Z,18.40
2018-12-22T22:44:20.659Z,18.40
2018-12-22T22:46:48.289Z,18.42
2018-12-22T22:49:17.965Z,18.40
2018-12-22T22:51:45.591Z,18.40
2018-12-22T22:54:13.164Z,18.36
2018-12-22T22:56:40.739Z,18.38
2018-12-22T22:59:08.353Z,18.38
2018-12-22T23:01:35.984Z,18.38
2018-12-22T23:04:03.620Z,18.38
2018-12-22T23:06:31.176Z,18.37
2018-12-22T23:08:58.812Z,18.40
2018-12-22T23:11:26.423Z,18.42
2018-12-22T23:13:54.075Z,18.41
2018-12-22T23:16:21.665Z,18.40
2018-12-22T23:18:49.246Z,18.37
2018-12-22T23:21:16.907Z,18.39
2018-12-22T23:23:44.543Z,18.41
2018-12-22T23:26:12.122Z,18.42
2018-12-22T23:28:39.753Z,18.43
2018-12-22T23:31:07.360Z,18.41
2018-12-22T23:33:35.046Z,18.37
2018-12-22T23:36:02.653Z,18.40
2018-12-22T23:38:30.296Z,18.41
2018-12-22T23:40:57.894Z,18.41
2018-12-22T23:43:25.497Z,18.42
2018-12-22T23:45:53.097Z,18.41
2018-12-22T23:48:20.750Z,18.41
2018-12-22T23:50:48.320Z,18.42
2018-12-22T23:53:15.954Z,18.41
2018-12-22T23:55:43.528Z,18.41
2018-12-22T23:58:11.216Z,18.42
